createdAt,value
2019-03-06T00:00:02.856Z,0
2019-03-06T00:01:12.314Z,0
2019-03-06T00:02:22.032Z,0
2019-03-06T00:03:31.778Z,0
2019-03-06T00:04:41.785Z,0
2019-03-06T00:05:51.750Z,0
2019-03-06T00:07:01.474Z,0
2019-03-06T00:08:11.466Z,0
2019-03-06T00:09:21.419Z,0
2019-03-06T00:10:31.390Z,0
2019-03-06T00:11:40.843Z,0
2019-03-06T00:12:50.799Z,0
2019-03-06T00:14:00.311Z,0
2019-03-06T00:15:10.021Z,0
2019-03-06T00:16:19.973Z,0
2019-03-06T00:17:29.940Z,0
2019-03-06T00:18:39.659Z,0
2019-03-06T00:19:49.414Z,0
2019-03-06T00:20:59.365Z,0
2019-03-06T00:22:09.093Z,0
2019-03-06T00:23:19.069Z,0
2019-03-06T00:24:28.767Z,0
2019-03-06T00:25:38.480Z,0
2019-03-06T00:26:48.454Z,0
2019-03-06T00:27:58.655Z,0
2019-03-06T00:29:09.037Z,0
2019-03-06T00:30:19.939Z,0
2019-03-06T00:31:29.913Z,0
2019-03-06T00:32:40.083Z,0
2019-03-06T00:33:50.031Z,0
2019-03-06T00:34:59.755Z,0
2019-03-06T00:36:09.729Z,0
2019-03-06T00:37:19.692Z,0
2019-03-06T00:38:29.665Z,0
2019-03-06T00:39:39.627Z,0
2019-03-06T00:40:49.580Z,0
2019-03-06T00:41:59.302Z,0
2019-03-06T00:43:09.012Z,0
2019-03-06T00:44:18.971Z,0
2019-03-06T00:45:28.930Z,0
2019-03-06T00:46:38.901Z,0
2019-03-06T00:47:48.858Z,0
2019-03-06T00:48:58.564Z,0
2019-03-06T00:50:08.541Z,0
2019-03-06T00:51:18.262Z,0
2019-03-06T00:52:28.226Z,0
2019-03-06T00:53:37.428Z,0
2019-03-06T00:54:47.125Z,0
2019-03-06T00:55:57.101Z,0
2019-03-06T00:57:06.792Z,0
2019-03-06T00:58:16.515Z,0
2019-03-06T00:59:26.125Z,0
2019-03-06T01:00:36.088Z,0
2019-03-06T01:01:45.564Z,0
2019-03-06T01:02:55.795Z,0
2019-03-06T01:04:06.446Z,0
2019-03-06T01:05:17.290Z,0
2019-03-06T01:06:27.513Z,0
2019-03-06T01:07:37.360Z,0
2019-03-06T01:08:47.290Z,0
2019-03-06T01:09:57.253Z,0
2019-03-06T01:11:07.201Z,0
2019-03-06T01:12:16.913Z,0
2019-03-06T01:13:26.887Z,0
2019-03-06T01:14:36.843Z,0
2019-03-06T01:15:46.567Z,0
2019-03-06T01:16:56.525Z,0
2019-03-06T01:18:06.241Z,0
2019-03-06T01:19:16.192Z,0
2019-03-06T01:20:26.169Z,0
2019-03-06T01:21:35.878Z,0
2019-03-06T01:22:45.588Z,0
2019-03-06T01:23:55.561Z,0
2019-03-06T01:25:05.527Z,0
2019-03-06T01:26:15.494Z,0
2019-03-06T01:27:25.449Z,0
2019-03-06T01:28:35.155Z,0
2019-03-06T01:29:44.873Z,0
2019-03-06T01:30:54.843Z,0
2019-03-06T01:32:04.793Z,0
2019-03-06T01:33:14.511Z,0
2019-03-06T01:34:24.270Z,0
2019-03-06T01:35:34.223Z,0
2019-03-06T01:36:44.490Z,0
2019-03-06T01:37:54.887Z,0
2019-03-06T01:39:05.224Z,0
2019-03-06T01:40:15.493Z,0
2019-03-06T01:41:25.299Z,0
2019-03-06T01:42:35.010Z,0
2019-03-06T01:43:44.991Z,0
2019-03-06T01:44:54.961Z,0
2019-03-06T01:46:04.664Z,0
2019-03-06T01:47:14.659Z,0
2019-03-06T01:48:24.370Z,0
2019-03-06T01:49:34.084Z,0
2019-03-06T01:50:44.048Z,0
2019-03-06T01:51:53.781Z,0
2019-03-06T01:53:03.746Z,0
2019-03-06T01:54:13.465Z,0
2019-03-06T01:55:23.166Z,0
2019-03-06T01:56:33.127Z,0
2019-03-06T01:57:42.573Z,0
2019-03-06T01:58:52.299Z,0
2019-03-06T02:00:02.016Z,0
2019-03-06T02:01:11.711Z,0
2019-03-06T02:02:21.689Z,0
2019-03-06T02:03:31.651Z,0
2019-03-06T02:04:41.370Z,0
2019-03-06T02:05:51.336Z,0
2019-03-06T02:07:01.300Z,0
2019-03-06T02:08:11.281Z,0
2019-03-06T02:09:21.245Z,0
2019-03-06T02:10:30.962Z,0
2019-03-06T02:11:41.258Z,0
2019-03-06T02:12:51.969Z,0
2019-03-06T02:14:02.314Z,0
2019-03-06T02:15:12.431Z,0
2019-03-06T02:16:22.393Z,0
2019-03-06T02:17:32.077Z,0
2019-03-06T02:18:41.802Z,0
2019-03-06T02:19:51.776Z,0
2019-03-06T02:21:01.483Z,0
2019-03-06T02:22:11.429Z,0
2019-03-06T02:23:21.377Z,0
2019-03-06T02:24:31.084Z,0
2019-03-06T02:25:40.798Z,0
2019-03-06T02:26:50.738Z,0
2019-03-06T02:28:00.700Z,0
2019-03-06T02:29:10.660Z,0
2019-03-06T02:30:20.642Z,0
2019-03-06T02:31:30.633Z,0
2019-03-06T02:32:40.346Z,0
2019-03-06T02:33:50.066Z,0
2019-03-06T02:35:00.037Z,0
2019-03-06T02:36:09.629Z,0
2019-03-06T02:37:19.599Z,0
2019-03-06T02:38:29.613Z,0
2019-03-06T02:39:39.351Z,0
2019-03-06T02:40:49.357Z,0
2019-03-06T02:41:59.087Z,0
2019-03-06T02:43:09.066Z,0
2019-03-06T02:44:19.064Z,0
2019-03-06T02:45:28.528Z,0
2019-03-06T02:46:38.266Z,0
2019-03-06T02:47:48.220Z,0
2019-03-06T02:48:58.310Z,0
2019-03-06T02:50:08.110Z,0
2019-03-06T02:51:18.112Z,0
2019-03-06T02:52:28.577Z,0
2019-03-06T02:53:38.934Z,0
2019-03-06T02:54:49.414Z,0
2019-03-06T02:55:59.381Z,0
2019-03-06T02:57:09.536Z,0
2019-03-06T02:58:19.556Z,0
2019-03-06T02:59:29.540Z,0
2019-03-06T03:00:39.548Z,0
2019-03-06T03:01:49.551Z,0
2019-03-06T03:02:59.539Z,0
2019-03-06T03:04:09.530Z,0
2019-03-06T03:05:19.026Z,0
2019-03-06T03:06:29.016Z,0
2019-03-06T03:07:38.732Z,0
2019-03-06T03:08:48.450Z,0
2019-03-06T03:09:58.170Z,0
2019-03-06T03:11:08.292Z,0
2019-03-06T03:12:18.302Z,0
2019-03-06T03:13:28.287Z,0
2019-03-06T03:14:38.009Z,0
2019-03-06T03:15:48.002Z,0
2019-03-06T03:16:58.058Z,0
2019-03-06T03:18:08.033Z,0
2019-03-06T03:19:17.993Z,0
2019-03-06T03:20:27.726Z,0
2019-03-06T03:21:37.711Z,0
2019-03-06T03:22:47.718Z,0
2019-03-06T03:23:57.505Z,0
2019-03-06T03:25:07.651Z,0
2019-03-06T03:26:17.619Z,0
2019-03-06T03:27:27.577Z,0
2019-03-06T03:28:37.834Z,0
2019-03-06T03:29:48.531Z,0
2019-03-06T03:30:59.030Z,0
2019-03-06T03:32:09.738Z,0
2019-03-06T03:33:19.853Z,0
2019-03-06T03:34:30.082Z,0
2019-03-06T03:35:40.087Z,0
2019-03-06T03:36:49.840Z,0
2019-03-06T03:37:59.830Z,0
2019-03-06T03:39:09.545Z,0
2019-03-06T03:40:19.535Z,0
2019-03-06T03:41:29.269Z,0
2019-03-06T03:42:38.987Z,0
2019-03-06T03:43:48.693Z,0
2019-03-06T03:44:58.678Z,0
2019-03-06T03:46:08.658Z,0
2019-03-06T03:47:18.628Z,0
2019-03-06T03:48:28.592Z,0
2019-03-06T03:49:38.313Z,0
2019-03-06T03:50:48.069Z,0
2019-03-06T03:51:58.038Z,0
2019-03-06T03:53:08.008Z,0
2019-03-06T03:54:18.010Z,0
2019-03-06T03:55:28.005Z,0
2019-03-06T03:56:37.763Z,0
2019-03-06T03:57:47.497Z,0
2019-03-06T03:58:57.487Z,0
2019-03-06T04:00:07.205Z,0
2019-03-06T04:01:16.925Z,0
2019-03-06T04:02:26.398Z,0
2019-03-06T04:03:36.379Z,0
2019-03-06T04:04:46.095Z,0
2019-03-06T04:05:56.091Z,0
2019-03-06T04:07:06.081Z,0
2019-03-06T04:08:15.818Z,0
2019-03-06T04:09:25.858Z,0
2019-03-06T04:10:36.113Z,0
2019-03-06T04:11:46.716Z,0
2019-03-06T04:12:57.347Z,0
2019-03-06T04:14:07.471Z,0
2019-03-06T04:15:17.629Z,0
2019-03-06T04:16:27.633Z,0
2019-03-06T04:17:37.355Z,0
2019-03-06T04:18:47.112Z,0
2019-03-06T04:19:56.818Z,0
2019-03-06T04:21:06.796Z,0
2019-03-06T04:22:16.560Z,0
2019-03-06T04:23:26.264Z,0
2019-03-06T04:24:36.254Z,0
2019-03-06T04:25:46.488Z,0
2019-03-06T04:26:56.234Z,0
2019-03-06T04:28:06.216Z,0
2019-03-06T04:29:16.196Z,0
2019-03-06T04:30:25.657Z,0
2019-03-06T04:31:35.652Z,0
2019-03-06T04:32:45.619Z,0
2019-03-06T04:33:55.626Z,0
2019-03-06T04:35:05.626Z,0
2019-03-06T04:36:15.683Z,0
2019-03-06T04:37:25.660Z,0
2019-03-06T04:38:35.612Z,0
2019-03-06T04:39:45.314Z,0
2019-03-06T04:40:55.039Z,0
2019-03-06T04:42:04.998Z,0
2019-03-06T04:43:14.959Z,0
2019-03-06T04:44:24.665Z,0
2019-03-06T04:45:34.127Z,0
2019-03-06T04:46:44.087Z,0
2019-03-06T04:47:53.558Z,0
2019-03-06T04:49:03.524Z,0
2019-03-06T04:50:14.137Z,0
2019-03-06T04:51:25.064Z,0
2019-03-06T04:52:35.518Z,0
2019-03-06T04:53:45.680Z,0
2019-03-06T04:54:55.373Z,0
2019-03-06T04:56:05.093Z,0
2019-03-06T04:57:14.555Z,0
2019-03-06T04:58:26.151Z,0
2019-03-06T04:59:36.016Z,0
2019-03-06T05:00:45.751Z,0
2019-03-06T05:01:55.712Z,0
2019-03-06T05:03:05.674Z,0
2019-03-06T05:04:15.627Z,0
2019-03-06T05:05:25.585Z,0
2019-03-06T05:06:35.313Z,0
2019-03-06T05:07:45.022Z,0
2019-03-06T05:08:54.737Z,0
2019-03-06T05:10:04.454Z,0
2019-03-06T05:11:14.157Z,0
2019-03-06T05:12:23.869Z,0
2019-03-06T05:13:33.333Z,4
2019-03-06T05:14:43.297Z,0
2019-03-06T05:15:53.024Z,4
2019-03-06T05:17:02.725Z,0
2019-03-06T05:18:12.192Z,4
2019-03-06T05:19:22.140Z,8
2019-03-06T05:20:31.831Z,8
2019-03-06T05:21:41.542Z,8
2019-03-06T05:22:51.535Z,12
2019-03-06T05:24:01.493Z,12
2019-03-06T05:25:11.453Z,16
2019-03-06T05:26:21.574Z,20
2019-03-06T05:27:31.461Z,28
2019-03-06T05:28:42.124Z,32
2019-03-06T05:29:52.737Z,40
2019-03-06T05:31:03.143Z,48
2019-03-06T05:32:13.209Z,60
2019-03-06T05:33:22.914Z,68
2019-03-06T05:34:32.641Z,84
2019-03-06T05:35:42.612Z,96
2019-03-06T05:36:52.581Z,112
2019-03-06T05:38:02.550Z,132
2019-03-06T05:39:12.250Z,152
2019-03-06T05:40:21.964Z,176
2019-03-06T05:41:31.673Z,196
2019-03-06T05:42:41.377Z,216
2019-03-06T05:43:51.329Z,240
2019-03-06T05:45:01.298Z,268
2019-03-06T05:46:11.257Z,292
2019-03-06T05:47:20.959Z,320
2019-03-06T05:48:30.687Z,352
2019-03-06T05:49:39.902Z,388
2019-03-06T05:50:49.607Z,424
2019-03-06T05:51:59.588Z,456
2019-03-06T05:53:09.306Z,500
2019-03-06T05:54:19.043Z,548
2019-03-06T05:55:28.997Z,608
2019-03-06T05:56:38.973Z,668
2019-03-06T05:57:48.937Z,720
2019-03-06T05:58:58.643Z,776
2019-03-06T06:00:08.605Z,832
2019-03-06T06:01:18.883Z,884
2019-03-06T06:02:30.599Z,952
2019-03-06T06:03:40.949Z,1016
2019-03-06T06:04:50.609Z,1076
2019-03-06T06:06:00.569Z,1152
2019-03-06T06:07:10.518Z,1232
2019-03-06T06:08:20.481Z,1320
2019-03-06T06:09:30.191Z,1396
2019-03-06T06:10:40.157Z,1464
2019-03-06T06:11:49.912Z,1520
2019-03-06T06:12:59.865Z,1572
2019-03-06T06:14:09.577Z,1620
2019-03-06T06:15:19.525Z,1664
2019-03-06T06:16:29.489Z,1704
2019-03-06T06:17:39.448Z,1740
2019-03-06T06:18:49.397Z,1768
2019-03-06T06:19:59.357Z,1792
2019-03-06T06:21:09.321Z,1808
2019-03-06T06:22:19.037Z,1828
2019-03-06T06:23:28.500Z,1844
2019-03-06T06:24:38.211Z,1864
2019-03-06T06:25:48.171Z,1888
2019-03-06T06:26:58.133Z,1916
2019-03-06T06:28:07.865Z,1944
2019-03-06T06:29:17.592Z,1976
2019-03-06T06:30:29.075Z,2000
2019-03-06T06:31:39.027Z,2036
2019-03-06T06:32:49.009Z,2100
2019-03-06T06:33:59.007Z,2168
2019-03-06T06:35:08.942Z,2248
2019-03-06T06:36:19.675Z,2336
2019-03-06T06:37:30.025Z,2440
2019-03-06T06:38:42.346Z,2564
2019-03-06T06:39:52.336Z,2704
2019-03-06T06:41:02.316Z,2868
2019-03-06T06:42:12.041Z,3044
2019-03-06T06:43:21.831Z,3212
2019-03-06T06:44:31.306Z,3340
2019-03-06T06:45:41.275Z,3364
2019-03-06T06:46:51.259Z,3504
2019-03-06T06:48:00.991Z,3604
2019-03-06T06:49:10.963Z,3680
2019-03-06T06:50:20.965Z,3808
2019-03-06T06:51:30.922Z,3900
2019-03-06T06:52:40.900Z,3972
2019-03-06T06:53:50.891Z,4036
2019-03-06T06:55:00.615Z,4092
2019-03-06T06:56:10.344Z,4116
2019-03-06T06:57:20.310Z,4096
2019-03-06T06:58:38.519Z,4244
2019-03-06T06:59:48.474Z,4336
2019-03-06T07:00:58.191Z,4372
2019-03-06T07:02:08.218Z,4384
2019-03-06T07:03:18.479Z,4412
2019-03-06T07:04:30.355Z,4484
2019-03-06T07:05:40.335Z,4512
2019-03-06T07:06:50.425Z,4540
2019-03-06T07:08:00.143Z,4552
2019-03-06T07:09:09.599Z,4568
2019-03-06T07:10:19.315Z,4580
2019-03-06T07:11:29.285Z,4568
2019-03-06T07:12:39.303Z,4544
2019-03-06T07:13:49.268Z,4528
2019-03-06T07:14:59.031Z,4516
2019-03-06T07:16:08.771Z,4504
2019-03-06T07:17:18.212Z,4504
2019-03-06T07:18:27.915Z,4516
2019-03-06T07:19:37.901Z,4556
2019-03-06T07:20:47.681Z,4596
2019-03-06T07:21:56.891Z,4644
2019-03-06T07:23:06.859Z,4708
2019-03-06T07:24:16.824Z,4772
2019-03-06T07:25:26.788Z,4840
2019-03-06T07:26:36.512Z,4880
2019-03-06T07:27:45.746Z,4928
2019-03-06T07:28:55.468Z,4956
2019-03-06T07:30:05.445Z,5024
2019-03-06T07:31:15.421Z,5100
2019-03-06T07:32:25.169Z,5152
2019-03-06T07:33:35.140Z,5188
2019-03-06T07:34:44.875Z,5148
2019-03-06T07:35:55.407Z,5292
2019-03-06T07:37:05.907Z,5436
2019-03-06T07:38:16.338Z,5576
2019-03-06T07:39:26.417Z,5696
2019-03-06T07:40:36.405Z,5792
2019-03-06T07:41:46.403Z,5904
2019-03-06T07:42:55.899Z,6016
2019-03-06T07:44:05.896Z,6148
2019-03-06T07:45:15.366Z,6292
2019-03-06T07:46:25.350Z,6468
2019-03-06T07:47:35.337Z,6668
2019-03-06T07:48:45.099Z,6892
2019-03-06T07:49:54.848Z,7080
2019-03-06T07:51:04.827Z,7244
2019-03-06T07:52:14.787Z,7356
2019-03-06T07:53:24.593Z,7384
2019-03-06T07:54:34.551Z,7280
2019-03-06T07:55:44.547Z,7112
2019-03-06T07:56:54.278Z,6880
2019-03-06T07:58:04.001Z,6636
2019-03-06T07:59:13.758Z,6192
2019-03-06T08:00:23.786Z,5956
2019-03-06T08:01:33.563Z,5728
2019-03-06T08:02:43.570Z,5348
2019-03-06T08:03:53.554Z,5452
2019-03-06T08:05:03.740Z,5616
2019-03-06T08:06:14.256Z,5944
2019-03-06T08:07:25.051Z,6084
2019-03-06T08:08:35.443Z,5956
2019-03-06T08:09:45.563Z,5804
2019-03-06T08:10:55.573Z,5668
2019-03-06T08:12:05.561Z,5620
2019-03-06T08:13:15.622Z,5900
2019-03-06T08:14:29.568Z,6220
2019-03-06T08:15:39.516Z,6360
2019-03-06T08:16:49.496Z,6396
2019-03-06T08:17:59.470Z,6436
2019-03-06T08:19:09.446Z,6484
2019-03-06T08:20:19.542Z,6544
2019-03-06T08:21:29.265Z,6612
2019-03-06T08:22:39.263Z,6664
2019-03-06T08:23:49.010Z,6724
2019-03-06T08:24:58.982Z,6888
2019-03-06T08:26:08.702Z,7052
2019-03-06T08:27:18.743Z,7320
2019-03-06T08:28:28.711Z,7748
2019-03-06T08:29:38.882Z,8152
2019-03-06T08:30:50.552Z,8328
2019-03-06T08:32:00.274Z,8552
2019-03-06T08:33:17.868Z,8840
2019-03-06T08:34:28.404Z,9120
2019-03-06T08:35:38.390Z,9404
2019-03-06T08:36:48.106Z,9712
2019-03-06T08:37:58.074Z,9980
2019-03-06T08:39:07.538Z,10276
2019-03-06T08:40:17.506Z,10400
2019-03-06T08:41:27.219Z,10468
2019-03-06T08:42:37.479Z,9916
2019-03-06T08:43:47.466Z,9692
2019-03-06T08:44:57.442Z,9492
2019-03-06T08:46:07.172Z,9300
2019-03-06T08:47:17.143Z,9700
2019-03-06T08:48:27.129Z,10408
2019-03-06T08:49:37.099Z,11516
2019-03-06T08:50:46.837Z,11652
2019-03-06T08:51:56.814Z,12672
2019-03-06T08:53:06.787Z,13080
2019-03-06T08:54:16.492Z,13408
2019-03-06T08:55:26.474Z,13528
2019-03-06T08:56:36.445Z,13492
2019-03-06T08:57:45.949Z,12904
2019-03-06T08:58:55.681Z,11660
2019-03-06T09:00:05.734Z,11072
2019-03-06T09:01:15.486Z,10136
2019-03-06T09:02:25.223Z,10356
2019-03-06T09:03:35.266Z,10636
2019-03-06T09:04:45.950Z,12084
2019-03-06T09:05:56.332Z,13504
2019-03-06T09:07:06.425Z,13524
2019-03-06T09:08:16.395Z,13520
2019-03-06T09:09:26.118Z,13128
2019-03-06T09:10:36.116Z,13492
2019-03-06T09:11:46.766Z,13496
2019-03-06T09:12:56.752Z,13208
2019-03-06T09:14:07.172Z,13160
2019-03-06T09:15:16.718Z,12396
2019-03-06T09:16:26.466Z,12220
2019-03-06T09:17:36.444Z,12068
2019-03-06T09:18:46.167Z,12952
2019-03-06T09:19:55.396Z,13432
2019-03-06T09:21:05.379Z,14044
2019-03-06T09:22:15.449Z,14428
2019-03-06T09:23:30.558Z,14568
2019-03-06T09:24:40.884Z,14720
2019-03-06T09:25:50.850Z,14660
2019-03-06T09:27:02.132Z,14728
2019-03-06T09:28:12.151Z,14440
2019-03-06T09:29:21.911Z,14508
2019-03-06T09:30:31.646Z,14380
2019-03-06T09:31:41.844Z,14212
2019-03-06T09:32:51.813Z,13920
2019-03-06T09:34:02.708Z,14004
2019-03-06T09:35:13.281Z,14216
2019-03-06T09:36:23.918Z,14524
2019-03-06T09:37:33.643Z,15016
2019-03-06T09:38:43.646Z,15224
2019-03-06T09:39:53.618Z,15556
2019-03-06T09:41:03.382Z,16176
2019-03-06T09:42:13.358Z,16736
2019-03-06T09:43:23.344Z,17024
2019-03-06T09:44:32.834Z,17408
2019-03-06T09:45:42.842Z,17568
2019-03-06T09:46:52.820Z,17696
2019-03-06T09:48:02.549Z,17472
2019-03-06T09:49:18.922Z,17792
2019-03-06T09:50:28.709Z,18464
2019-03-06T09:51:38.682Z,18336
2019-03-06T09:52:48.153Z,18112
2019-03-06T09:53:58.139Z,18144
2019-03-06T09:55:08.155Z,19072
2019-03-06T09:56:18.156Z,19040
2019-03-06T09:57:27.909Z,18752
2019-03-06T09:58:37.922Z,19936
2019-03-06T09:59:47.662Z,19840
2019-03-06T10:00:57.680Z,20384
2019-03-06T10:02:14.198Z,20224
2019-03-06T10:03:24.818Z,20512
2019-03-06T10:04:35.087Z,20736
2019-03-06T10:05:45.064Z,20192
2019-03-06T10:06:55.050Z,20320
2019-03-06T10:08:05.027Z,20928
2019-03-06T10:09:14.995Z,19584
2019-03-06T10:10:24.966Z,20352
2019-03-06T10:11:34.952Z,22784
2019-03-06T10:12:52.350Z,23648
2019-03-06T10:14:02.084Z,24896
2019-03-06T10:15:11.823Z,26080
2019-03-06T10:16:23.180Z,25120
2019-03-06T10:17:35.052Z,26304
2019-03-06T10:18:45.115Z,28608
2019-03-06T10:19:55.128Z,29728
2019-03-06T10:21:04.644Z,30176
2019-03-06T10:22:14.366Z,30272
2019-03-06T10:23:23.870Z,30880
2019-03-06T10:24:33.902Z,30112
2019-03-06T10:25:43.710Z,31424
2019-03-06T10:26:53.489Z,32896
2019-03-06T10:28:13.291Z,32448
2019-03-06T10:29:23.128Z,29952
2019-03-06T10:30:33.233Z,29184
2019-03-06T10:31:43.543Z,29696
2019-03-06T10:32:53.597Z,31776
2019-03-06T10:34:03.679Z,32480
2019-03-06T10:35:13.788Z,32640
2019-03-06T10:36:23.600Z,32640
2019-03-06T10:37:33.482Z,34976
2019-03-06T10:38:43.568Z,36896
2019-03-06T10:39:54.153Z,35424
2019-03-06T10:41:04.056Z,38208
2019-03-06T10:42:14.225Z,39584
2019-03-06T10:43:24.015Z,41568
2019-03-06T10:44:37.242Z,40096
2019-03-06T10:45:49.275Z,41600
2019-03-06T10:46:59.372Z,43488
2019-03-06T10:48:09.593Z,42464
2019-03-06T10:49:19.710Z,43744
2019-03-06T10:52:32.835Z,43616
2019-03-06T10:53:49.744Z,44608
2019-03-06T10:55:02.542Z,41056
2019-03-06T10:56:12.673Z,45024
2019-03-06T10:57:22.548Z,45568
2019-03-06T10:58:32.686Z,46464
2019-03-06T10:59:42.819Z,46464
2019-03-06T11:00:52.962Z,45024
2019-03-06T11:02:03.832Z,43104
2019-03-06T11:03:14.009Z,43200
2019-03-06T11:04:23.844Z,44864
2019-03-06T11:05:34.255Z,45056
2019-03-06T11:06:44.334Z,45536
2019-03-06T11:07:54.450Z,44992
2019-03-06T11:09:04.540Z,42496
2019-03-06T11:10:23.199Z,40288
2019-03-06T11:11:34.706Z,40512
2019-03-06T11:12:44.817Z,41792
2019-03-06T11:13:54.882Z,39488
2019-03-06T11:15:13.503Z,38976
2019-03-06T11:24:01.326Z,35840
2019-03-06T11:25:11.111Z,38368
2019-03-06T11:26:21.161Z,38272
2019-03-06T11:27:31.223Z,35520
2019-03-06T11:28:40.767Z,35968
2019-03-06T11:29:50.576Z,36736
2019-03-06T11:31:00.575Z,33984
2019-03-06T11:32:10.597Z,37376
2019-03-06T11:33:20.703Z,37184
2019-03-06T11:34:30.904Z,38528
2019-03-06T11:35:41.172Z,38336
2019-03-06T11:36:51.515Z,38560
2019-03-06T11:38:01.872Z,37920
2019-03-06T11:39:12.656Z,37792
2019-03-06T11:40:23.506Z,40384
2019-03-06T11:41:34.011Z,42528
2019-03-06T11:42:43.521Z,43328
2019-03-06T11:43:53.929Z,42944
2019-03-06T11:45:04.077Z,44352
2019-03-06T11:46:13.878Z,46336
2019-03-06T11:47:23.889Z,45856
2019-03-06T11:48:33.685Z,43008
2019-03-06T11:49:43.711Z,40384
2019-03-06T11:50:53.473Z,36512
2019-03-06T11:52:03.247Z,34368
2019-03-06T11:53:13.037Z,34816
2019-03-06T11:54:23.087Z,34400
2019-03-06T11:55:33.134Z,33472
2019-03-06T11:56:43.206Z,31328
2019-03-06T11:57:53.027Z,31648
2019-03-06T11:59:02.847Z,31552
2019-03-06T12:00:12.877Z,31808
2019-03-06T12:01:23.063Z,33376
2019-03-06T12:02:32.903Z,35584
2019-03-06T12:03:42.693Z,38688
2019-03-06T12:04:52.779Z,40672
2019-03-06T12:06:02.811Z,44224
2019-03-06T12:07:12.852Z,47328
2019-03-06T12:08:22.661Z,44032
2019-03-06T12:09:32.774Z,46528
2019-03-06T12:10:42.609Z,61216
2019-03-06T12:11:52.646Z,72352
2019-03-06T12:13:02.679Z,77792
2019-03-06T12:14:12.702Z,74816
2019-03-06T12:15:22.718Z,76864
2019-03-06T12:16:41.434Z,79104
2019-03-06T12:17:51.097Z,78304
2019-03-06T12:19:00.894Z,73856
2019-03-06T12:20:15.636Z,76320
2019-03-06T12:21:25.450Z,70720
2019-03-06T12:22:35.505Z,72640
2019-03-06T12:23:45.348Z,70336
2019-03-06T12:24:55.456Z,52192
2019-03-06T12:26:05.240Z,55872
2019-03-06T12:27:14.977Z,56192
2019-03-06T12:28:24.994Z,60480
2019-03-06T12:29:35.138Z,54304
2019-03-06T12:30:44.898Z,56768
2019-03-06T12:31:55.135Z,59744
2019-03-06T12:33:05.298Z,61696
2019-03-06T12:34:15.989Z,59136
2019-03-06T12:35:26.490Z,61280
2019-03-06T12:36:38.597Z,60256
2019-03-06T12:37:54.117Z,63840
2019-03-06T12:39:04.167Z,76480
2019-03-06T12:40:20.166Z,64576
2019-03-06T12:41:30.162Z,70240
2019-03-06T12:42:39.935Z,62624
2019-03-06T12:43:51.956Z,76576
2019-03-06T12:45:01.998Z,80288
2019-03-06T12:46:12.008Z,73280
2019-03-06T12:47:30.508Z,78016
2019-03-06T12:48:40.274Z,78912
2019-03-06T12:49:50.012Z,83680
2019-03-06T12:51:04.366Z,78528
2019-03-06T12:52:14.494Z,69376
2019-03-06T12:53:24.518Z,69408
2019-03-06T12:54:34.542Z,77760
2019-03-06T12:55:44.303Z,75264
2019-03-06T12:56:54.047Z,82816
2019-03-06T12:58:06.879Z,80896
2019-03-06T12:59:17.604Z,86816
2019-03-06T13:00:28.251Z,74080
2019-03-06T13:01:39.229Z,79552
2019-03-06T13:02:49.662Z,77824
2019-03-06T13:03:59.633Z,73952
2019-03-06T13:05:09.801Z,86784
2019-03-06T13:06:28.992Z,78432
2019-03-06T13:07:39.145Z,77760
2019-03-06T13:08:58.894Z,69920
2019-03-06T13:10:08.964Z,73024
2019-03-06T13:11:18.754Z,85888
2019-03-06T13:12:29.216Z,86912
2019-03-06T13:13:42.671Z,76416
2019-03-06T13:14:52.479Z,89312
2019-03-06T13:16:02.357Z,94336
2019-03-06T13:17:12.394Z,85184
2019-03-06T13:18:22.481Z,79168
2019-03-06T13:19:32.291Z,81600
2019-03-06T13:20:42.320Z,89792
2019-03-06T13:21:52.377Z,98176
2019-03-06T13:23:03.987Z,100992
2019-03-06T13:24:13.858Z,100192
2019-03-06T13:25:23.619Z,94944
2019-03-06T13:26:33.673Z,86976
2019-03-06T13:27:43.730Z,91776
2019-03-06T13:29:04.744Z,73312
2019-03-06T13:30:15.864Z,79488
2019-03-06T13:31:26.513Z,89824
2019-03-06T13:32:37.141Z,91296
2019-03-06T13:33:47.351Z,98560
2019-03-06T13:34:59.672Z,107072
2019-03-06T13:36:09.450Z,92160
2019-03-06T13:37:19.833Z,96512
2019-03-06T13:38:29.899Z,104672
2019-03-06T13:39:39.678Z,99808
2019-03-06T13:40:49.731Z,95744
2019-03-06T13:41:59.797Z,78080
2019-03-06T13:43:09.621Z,64128
2019-03-06T13:44:21.485Z,74624
2019-03-06T13:45:31.027Z,79680
2019-03-06T13:46:41.080Z,70976
2019-03-06T13:47:53.378Z,68544
2019-03-06T13:49:03.398Z,74880
2019-03-06T13:50:13.880Z,69408
2019-03-06T13:51:23.976Z,59360
2019-03-06T13:52:34.023Z,63488
2019-03-06T13:53:43.809Z,61920
2019-03-06T13:54:53.981Z,59552
2019-03-06T13:56:04.018Z,57728
2019-03-06T13:57:14.032Z,57792
2019-03-06T13:58:23.598Z,59328
2019-03-06T13:59:33.367Z,54400
2019-03-06T14:00:43.144Z,53856
2019-03-06T14:01:53.171Z,53664
2019-03-06T14:03:03.236Z,54752
2019-03-06T14:04:13.042Z,55808
2019-03-06T14:05:23.067Z,52800
2019-03-06T14:06:33.122Z,49600
2019-03-06T14:07:43.149Z,48288
2019-03-06T14:08:52.942Z,44768
2019-03-06T14:10:03.027Z,37952
2019-03-06T14:11:13.052Z,40448
2019-03-06T14:12:23.109Z,37312
2019-03-06T14:13:32.916Z,31456
2019-03-06T14:14:42.977Z,30048
2019-03-06T14:16:01.122Z,29376
2019-03-06T14:17:11.147Z,29760
2019-03-06T14:18:21.304Z,29120
2019-03-06T14:19:32.464Z,28192
2019-03-06T14:20:43.048Z,32288
2019-03-06T14:21:53.834Z,34080
2019-03-06T14:23:04.128Z,34752
2019-03-06T14:24:14.641Z,34528
2019-03-06T14:25:25.060Z,32224
2019-03-06T14:26:35.301Z,32256
2019-03-06T14:27:45.423Z,33504
2019-03-06T14:28:55.217Z,34944
2019-03-06T14:30:05.262Z,30880
2019-03-06T14:31:15.405Z,26560
2019-03-06T14:32:25.424Z,24032
2019-03-06T14:33:35.234Z,23008
2019-03-06T14:34:45.298Z,24480
2019-03-06T14:35:55.081Z,19552
2019-03-06T14:37:05.130Z,19008
2019-03-06T14:38:14.952Z,22496
2019-03-06T14:39:24.980Z,17504
2019-03-06T14:40:35.057Z,17504
2019-03-06T14:41:45.088Z,22656
2019-03-06T14:42:55.644Z,24256
2019-03-06T14:44:05.680Z,25984
2019-03-06T14:45:15.713Z,29184
2019-03-06T14:46:25.494Z,27520
2019-03-06T14:47:35.507Z,27744
2019-03-06T14:48:45.267Z,24256
2019-03-06T14:49:55.366Z,22816
2019-03-06T14:51:05.411Z,17088
2019-03-06T14:52:14.970Z,14644
2019-03-06T14:53:24.735Z,14044
2019-03-06T14:54:34.774Z,13328
2019-03-06T14:55:44.819Z,12756
2019-03-06T14:56:54.833Z,12352
2019-03-06T14:58:04.930Z,11796
2019-03-06T14:59:14.696Z,11200
2019-03-06T15:00:24.710Z,10572
2019-03-06T15:01:34.719Z,9980
2019-03-06T15:02:44.756Z,9432
2019-03-06T15:03:54.293Z,8896
2019-03-06T15:05:04.312Z,8320
2019-03-06T15:06:15.166Z,7764
2019-03-06T15:07:25.203Z,7348
2019-03-06T15:08:35.241Z,7028
2019-03-06T15:09:45.037Z,6772
2019-03-06T15:10:54.814Z,6492
2019-03-06T15:12:04.819Z,6336
2019-03-06T15:13:15.925Z,6240
2019-03-06T15:14:25.600Z,6184
2019-03-06T15:15:43.978Z,6208
2019-03-06T15:16:54.386Z,6192
2019-03-06T15:18:12.998Z,6112
2019-03-06T15:19:23.022Z,6100
2019-03-06T15:20:32.812Z,6060
2019-03-06T15:21:43.560Z,5948
2019-03-06T15:22:53.586Z,5832
2019-03-06T15:24:03.656Z,5736
2019-03-06T15:25:13.708Z,5656
2019-03-06T15:26:23.201Z,5592
2019-03-06T15:27:33.179Z,5512
2019-03-06T15:28:43.064Z,5448
2019-03-06T15:29:52.850Z,5416
2019-03-06T15:31:02.880Z,5396
2019-03-06T15:32:12.962Z,5384
2019-03-06T15:33:22.976Z,5348
2019-03-06T15:34:33.005Z,5284
2019-03-06T15:35:43.031Z,5184
2019-03-06T15:36:53.074Z,5052
2019-03-06T15:38:03.135Z,4888
2019-03-06T15:39:13.155Z,4708
2019-03-06T15:40:24.718Z,4524
2019-03-06T15:41:34.752Z,4352
2019-03-06T15:42:44.025Z,4180
2019-03-06T15:43:53.825Z,4012
2019-03-06T15:45:03.328Z,3836
2019-03-06T15:46:13.346Z,3652
2019-03-06T15:47:23.358Z,3456
2019-03-06T15:48:41.338Z,3256
2019-03-06T15:49:51.346Z,3088
2019-03-06T15:51:01.381Z,2940
2019-03-06T15:52:11.246Z,2816
2019-03-06T15:53:29.725Z,2720
2019-03-06T15:54:39.930Z,2668
2019-03-06T15:55:50.411Z,2640
2019-03-06T15:57:00.673Z,2620
2019-03-06T15:58:10.837Z,2584
2019-03-06T15:59:22.194Z,2520
2019-03-06T16:00:32.266Z,2436
2019-03-06T16:01:42.300Z,2324
2019-03-06T16:02:52.364Z,2200
2019-03-06T16:04:02.378Z,2072
2019-03-06T16:05:12.398Z,1944
2019-03-06T16:06:27.892Z,1824